Time;durP1;ratioP1;P1;durP2;ratioP2;P2;SDS_P1;SDS_P2;PMS_P1;PMS_P2;Temp;Humidity;BMP_temperature;BMP_pressure;BME280_temperature;BME280_humidity;BME280_pressure;Samples;Min_cycle;Max_cycle;Signal;HPM_P1;HPM_P2
2022/04/15 00:00:40;;;;;;;10.63;4.95;;;8.90;99.90;;;;;;5055086;28;20021;-76
2022/04/15 00:03:07;;;;;;;11.68;5.20;;;8.90;99.90;;;;;;5037279;28;20078;-75
2022/04/15 00:05:54;;;;;;;12.32;5.47;;;8.90;99.90;;;;;;5055556;28;20462;-75
2022/04/15 00:08:19;;;;;;;14.18;5.18;;;9.00;99.90;;;;;;5054969;28;20466;-75
2022/04/15 00:10:45;;;;;;;11.07;5.07;;;9.00;99.90;;;;;;5037080;28;20032;-75
2022/04/15 00:13:12;;;;;;;17.38;5.25;;;9.00;99.90;;;;;;5036848;28;20025;-75
2022/04/15 00:15:38;;;;;;;9.10;4.90;;;9.10;99.90;;;;;;5036864;28;20028;-76
2022/04/15 00:18:04;;;;;;;12.85;5.55;;;9.10;99.90;;;;;;5054749;28;20029;-76
2022/04/15 00:20:30;;;;;;;9.02;4.65;;;9.10;99.90;;;;;;5054634;28;20026;-76
2022/04/15 00:22:58;;;;;;;16.52;5.95;;;9.20;99.90;;;;;;5054734;28;20028;-76
2022/04/15 00:25:24;;;;;;;11.55;5.30;;;9.20;99.90;;;;;;5054627;28;20493;-76
2022/04/15 00:27:50;;;;;;;10.20;5.20;;;9.10;99.90;;;;;;5054899;28;20501;-76
2022/04/15 00:30:15;;;;;;;13.15;5.60;;;9.10;99.90;;;;;;5054647;28;20059;-76
2022/04/15 00:32:44;;;;;;;9.93;4.63;;;9.10;99.90;;;;;;5054416;28;20025;-76
2022/04/15 00:35:10;;;;;;;11.30;5.38;;;9.20;99.90;;;;;;5036547;28;20017;-75
2022/04/15 00:37:36;;;;;;;11.85;5.68;;;9.10;99.90;;;;;;5054591;28;20542;-75
2022/04/15 00:40:03;;;;;;;9.65;5.00;;;9.20;99.90;;;;;;5054047;28;20060;-75
2022/04/15 00:42:29;;;;;;;14.85;5.88;;;9.20;99.90;;;;;;5054307;28;20017;-75
2022/04/15 00:44:56;;;;;;;9.75;5.10;;;9.10;99.90;;;;;;5054236;28;20036;-75
2022/04/15 00:47:53;;;;;;;12.95;5.95;;;9.20;99.90;;;;;;5054318;28;20056;-75
2022/04/15 00:50:24;;;;;;;9.43;4.45;;;9.20;99.90;;;;;;5054688;28;20422;-75
2022/04/15 00:52:52;;;;;;;14.35;5.38;;;9.10;99.90;;;;;;5054127;28;20028;-75
2022/04/15 00:55:20;;;;;;;12.90;5.32;;;9.10;99.90;;;;;;5054223;28;20155;-75
2022/04/15 00:57:51;;;;;;;7.88;4.10;;;9.10;99.90;;;;;;5053920;28;20021;-75
2022/04/15 01:00:18;;;;;;;8.50;4.88;;;9.10;99.90;;;;;;5054089;28;20107;-75
2022/04/15 01:02:45;;;;;;;12.10;5.30;;;9.00;99.90;;;;;;5035955;28;20020;-75
2022/04/15 01:05:12;;;;;;;11.60;4.57;;;9.00;99.90;;;;;;5054468;28;20052;-75
2022/04/15 01:07:46;;;;;;;8.50;4.15;;;9.00;99.90;;;;;;5036039;28;20512;-75
2022/04/15 01:10:13;;;;;;;10.48;4.57;;;9.00;99.90;;;;;;5036872;28;20075;-75
2022/04/15 01:12:40;;;;;;;8.63;4.57;;;9.00;99.90;;;;;;5053985;28;20075;-75
2022/04/15 01:15:09;;;;;;;7.88;4.30;;;9.00;99.90;;;;;;5056205;28;20028;-77
2022/04/15 01:17:35;;;;;;;;;;;9.10;99.90;;;;;;5036410;28;20028;-77
2022/04/15 01:20:04;;;;;;;8.68;4.25;;;9.10;99.90;;;;;;5035970;28;19909;-77
2022/04/15 01:22:40;;;;;;;12.30;5.25;;;9.10;99.90;;;;;;5053583;28;20067;-77
2022/04/15 01:25:18;;;;;;;11.88;4.72;;;9.10;99.90;;;;;;5053556;28;20060;-76
2022/04/15 01:27:48;;;;;;;9.20;4.72;;;9.10;99.90;;;;;;5036333;28;20044;-77
2022/04/15 01:30:17;;;;;;;8.45;4.80;;;9.10;99.90;;;;;;5053648;28;20032;-77
2022/04/15 01:32:43;;;;;;;9.75;4.63;;;9.20;99.90;;;;;;5053584;28;20036;-77
2022/04/15 01:35:10;;;;;;;6.45;3.47;;;9.20;99.90;;;;;;5035944;28;20359;-77
2022/04/15 01:37:37;;;;;;;8.85;3.30;;;9.20;99.90;;;;;;5054042;28;20074;-77
2022/04/15 01:40:07;;;;;;;9.15;3.88;;;9.20;99.90;;;;;;5036277;28;20398;-77
2022/04/15 01:42:35;;;;;;;12.13;4.07;;;9.20;99.90;;;;;;5054095;28;20159;-77
2022/04/15 01:45:00;;;;;;;8.43;2.88;;;9.30;99.90;;;;;;5053640;28;20505;-77
2022/04/15 01:47:27;;;;;;;8.95;3.55;;;9.30;99.90;;;;;;5035687;28;20021;-77
2022/04/15 01:49:52;;;;;;;7.00;2.20;;;9.30;99.90;;;;;;5053723;28;20025;-77
2022/04/15 01:52:18;;;;;;;8.38;2.97;;;9.20;99.90;;;;;;5035841;28;20025;-77
2022/04/15 01:54:45;;;;;;;8.13;3.00;;;9.30;99.90;;;;;;5035997;28;20021;-76
2022/04/15 01:57:11;;;;;;;14.85;2.35;;;9.30;99.90;;;;;;5035673;28;20107;-77
2022/04/15 01:59:37;;;;;;;6.38;2.58;;;9.30;99.90;;;;;;5035653;28;20036;-77
2022/04/15 02:02:04;;;;;;;9.85;3.20;;;9.30;99.90;;;;;;5053766;28;20079;-77
2022/04/15 02:04:30;;;;;;;8.38;2.88;;;9.30;99.90;;;;;;5053208;28;20490;-77
2022/04/15 02:06:55;;;;;;;5.22;2.30;;;9.30;99.90;;;;;;5053415;28;20083;-77
2022/04/15 02:09:21;;;;;;;5.40;2.15;;;9.40;99.90;;;;;;5053644;28;20502;-77
2022/04/15 02:11:47;;;;;;;5.70;2.10;;;9.30;99.90;;;;;;5035330;28;20056;-77
2022/04/15 02:14:18;;;;;;;4.85;2.50;;;9.30;99.90;;;;;;5035522;28;20021;-77
2022/04/15 02:16:45;;;;;;;7.15;2.15;;;9.40;99.90;;;;;;5053326;28;20029;-77
2022/04/15 02:19:11;;;;;;;6.43;2.75;;;9.40;99.90;;;;;;5053116;28;20108;-77
2022/04/15 02:21:37;;;;;;;5.15;1.95;;;9.40;99.90;;;;;;5053755;28;20493;-77
2022/04/15 02:24:03;;;;;;;9.07;2.67;;;9.40;99.90;;;;;;5056233;28;20040;-77
2022/04/15 02:26:29;;;;;;;7.07;2.10;;;9.40;99.90;;;;;;5055218;28;20486;-77
2022/04/15 02:28:54;;;;;;;8.18;3.03;;;9.30;99.90;;;;;;5035100;28;20028;-74
2022/04/15 02:31:20;;;;;;;7.03;2.55;;;9.40;99.90;;;;;;5053006;28;20048;-74
2022/04/15 02:33:45;;;;;;;6.15;2.95;;;9.50;99.90;;;;;;5053097;28;20028;-74
2022/04/15 02:36:11;;;;;;;6.90;2.28;;;9.50;99.90;;;;;;5053850;28;20032;-74
2022/04/15 02:38:37;;;;;;;6.15;1.88;;;9.50;99.90;;;;;;5056585;28;20079;-74
2022/04/15 02:41:05;;;;;;;4.53;2.10;;;9.60;99.90;;;;;;5056839;28;20028;-74
2022/04/15 02:43:35;;;;;;;14.27;2.42;;;9.50;99.90;;;;;;5056592;28;20029;-74
2022/04/15 02:46:02;;;;;;;8.05;1.85;;;9.50;99.90;;;;;;5038615;28;20417;-74
2022/04/15 02:48:29;;;;;;;5.72;2.15;;;9.50;99.90;;;;;;5056435;28;20477;-74
2022/04/15 02:50:55;;;;;;;4.38;1.60;;;9.60;99.90;;;;;;5056409;28;20513;-74
2022/04/15 02:53:25;;;;;;;3.88;1.60;;;9.60;99.90;;;;;;5056220;28;20060;-74
2022/04/15 02:55:50;;;;;;;7.28;1.98;;;9.50;99.90;;;;;;5056356;28;20120;-74
2022/04/15 02:58:16;;;;;;;5.13;1.58;;;9.50;99.90;;;;;;5056225;28;20236;-74
2022/04/15 03:00:42;;;;;;;6.97;1.60;;;9.50;99.90;;;;;;5038385;28;20028;-74
2022/04/15 03:03:07;;;;;;;3.63;1.75;;;9.50;99.90;;;;;;5038167;28;20032;-74
2022/04/15 03:05:33;;;;;;;5.63;1.55;;;9.50;99.90;;;;;;5056573;28;20021;-74
2022/04/15 03:07:58;;;;;;;4.55;1.95;;;9.80;99.90;;;;;;5038204;28;20129;-74
2022/04/15 03:10:24;;;;;;;4.93;1.50;;;9.50;99.90;;;;;;5056512;28;20025;-74
2022/04/15 03:12:50;;;;;;;11.10;1.90;;;9.50;99.90;;;;;;5038373;28;20013;-74
2022/04/15 03:15:16;;;;;;;6.95;2.13;;;9.50;99.90;;;;;;5055997;28;20028;-74
2022/04/15 03:17:42;;;;;;;4.78;2.05;;;10.00;99.90;;;;;;5055822;28;20021;-74
2022/04/15 03:20:09;;;;;;;6.53;1.85;;;9.50;99.90;;;;;;5037834;28;20033;-74
2022/04/15 03:22:40;;;;;;;8.15;2.53;;;9.60;99.90;;;;;;5038612;28;20025;-74
2022/04/15 03:25:07;;;;;;;7.32;3.25;;;9.50;99.90;;;;;;5055601;28;20501;-74
2022/04/15 03:27:33;;;;;;;6.38;2.40;;;9.50;99.90;;;;;;5037876;28;20075;-74
2022/04/15 03:29:59;;;;;;;10.32;1.92;;;9.60;99.90;;;;;;5056025;28;20025;-74
2022/04/15 03:32:25;;;;;;;5.07;1.70;;;9.60;99.90;;;;;;5037975;28;20028;-74
2022/04/15 03:34:55;;;;;;;4.88;1.42;;;9.60;99.90;;;;;;5055427;28;20070;-74
2022/04/15 03:37:21;;;;;;;6.57;2.08;;;9.60;99.90;;;;;;5055611;28;20025;-74
2022/04/15 03:39:46;;;;;;;8.07;1.40;;;9.60;99.90;;;;;;5037506;28;20482;-74
2022/04/15 03:42:12;;;;;;;4.80;1.30;;;9.70;99.90;;;;;;5055407;28;20021;-74
2022/04/15 03:44:37;;;;;;;3.42;1.38;;;9.70;99.90;;;;;;5055589;28;20021;-74
2022/04/15 03:47:04;;;;;;;3.22;0.50;;;9.70;99.90;;;;;;5036852;28;20112;-74
2022/04/15 03:49:30;;;;;;;3.80;1.30;;;9.60;99.90;;;;;;5055369;28;20021;-74
2022/04/15 03:51:56;;;;;;;4.72;1.40;;;9.60;99.90;;;;;;5037197;28;20020;-74
2022/04/15 03:54:21;;;;;;;7.72;1.20;;;9.70;99.90;;;;;;5055160;28;20036;-74
2022/04/15 03:56:47;;;;;;;3.17;0.40;;;9.70;99.90;;;;;;5037123;28;20493;-74
2022/04/15 03:59:16;;;;;;;2.33;1.10;;;9.60;99.90;;;;;;5037272;28;20398;-74
2022/04/15 04:01:42;;;;;;;5.75;0.77;;;9.60;99.90;;;;;;5055028;28;20481;-74
2022/04/15 04:04:08;;;;;;;2.75;0.50;;;9.60;99.90;;;;;;5055107;28;20017;-74
2022/04/15 04:06:34;;;;;;;3.22;0.88;;;9.60;99.90;;;;;;5055114;28;20120;-74
2022/04/15 04:09:00;;;;;;;4.80;0.50;;;9.60;99.90;;;;;;5054938;28;20040;-74
2022/04/15 04:11:26;;;;;;;2.10;0.82;;;9.60;99.90;;;;;;5037113;28;20481;-74
2022/04/15 04:13:51;;;;;;;4.25;1.42;;;9.60;99.90;;;;;;5054885;28;20031;-74
2022/04/15 04:16:18;;;;;;;9.32;1.02;;;9.60;99.90;;;;;;5036993;28;20029;-75
2022/04/15 04:18:44;;;;;;;6.95;1.00;;;9.60;99.90;;;;;;5054715;28;20067;-74
2022/04/15 04:21:10;;;;;;;3.22;1.63;;;9.50;99.90;;;;;;5054519;28;20021;-74
2022/04/15 04:23:36;;;;;;;5.50;1.15;;;9.60;99.90;;;;;;5054740;28;20393;-74
2022/04/15 04:26:03;;;;;;;2.58;0.70;;;9.50;99.90;;;;;;5036598;28;20082;-74
2022/04/15 04:28:29;;;;;;;4.03;0.98;;;9.50;99.90;;;;;;5036473;28;20032;-74
2022/04/15 04:30:55;;;;;;;2.72;1.08;;;9.50;99.90;;;;;;5054781;28;20542;-74
2022/04/15 04:33:21;;;;;;;4.82;0.88;;;9.50;99.90;;;;;;5036791;28;20055;-74
2022/04/15 04:35:47;;;;;;;5.20;1.02;;;9.40;99.90;;;;;;5054774;28;20568;-74
2022/04/15 04:38:13;;;;;;;2.95;1.33;;;9.50;99.90;;;;;;5054395;28;20021;-74
2022/04/15 04:40:39;;;;;;;4.60;0.85;;;9.50;99.90;;;;;;5054500;28;20047;-74
2022/04/15 04:43:05;;;;;;;2.17;0.95;;;9.50;99.90;;;;;;5054354;28;20028;-74
2022/04/15 04:45:34;;;;;;;4.63;1.38;;;9.50;99.90;;;;;;5054244;28;20028;-75
2022/04/15 04:48:01;;;;;;;2.40;1.17;;;9.50;99.90;;;;;;5054518;28;20013;-74
2022/04/15 04:50:28;;;;;;;3.13;0.47;;;9.50;99.90;;;;;;5054525;28;20029;-74
2022/04/15 04:52:53;;;;;;;4.82;1.02;;;9.50;99.90;;;;;;5036356;28;20039;-74
2022/04/15 04:55:20;;;;;;;3.63;1.10;;;9.50;99.90;;;;;;5036378;28;20017;-74
2022/04/15 04:57:46;;;;;;;6.07;0.65;;;9.40;99.90;;;;;;5036178;28;20423;-74
2022/04/15 05:00:14;;;;;;;1.02;0.40;;;9.40;99.90;;;;;;5035445;28;20112;-74
2022/04/15 05:02:40;;;;;;;2.23;0.70;;;9.40;99.90;;;;;;5053973;28;20082;-74
2022/04/15 05:05:06;;;;;;;2.88;0.57;;;9.40;99.90;;;;;;5054160;28;20071;-74
2022/04/15 05:07:32;;;;;;;5.70;1.42;;;9.40;99.90;;;;;;5036112;28;20103;-74
2022/04/15 05:09:58;;;;;;;2.67;0.75;;;9.40;99.90;;;;;;5053727;28;20521;-73
2022/04/15 05:12:23;;;;;;;5.88;1.00;;;9.40;99.90;;;;;;5053706;28;20033;-71
2022/04/15 05:14:49;;;;;;;2.97;0.50;;;9.30;99.90;;;;;;5053686;28;20060;-73
2022/04/15 05:17:15;;;;;;;3.17;0.50;;;9.30;99.90;;;;;;5054270;28;20029;-73
2022/04/15 05:19:40;;;;;;;1.23;0.63;;;9.30;99.90;;;;;;5054196;28;20055;-74
2022/04/15 05:22:07;;;;;;;5.53;1.02;;;9.20;99.90;;;;;;5053622;28;20379;-73
2022/04/15 05:24:33;;;;;;;5.32;0.50;;;9.20;99.90;;;;;;5053764;28;20029;-73
2022/04/15 05:26:59;;;;;;;1.90;0.70;;;9.40;99.90;;;;;;5053613;28;20067;-73
2022/04/15 05:29:24;;;;;;;1.88;0.43;;;9.20;99.90;;;;;;5053966;28;20417;-73
2022/04/15 05:31:50;;;;;;;3.38;0.80;;;9.20;99.90;;;;;;5053607;28;20028;-73
2022/04/15 05:34:16;;;;;;;3.78;0.47;;;9.30;99.90;;;;;;5053498;28;20036;-73
2022/04/15 05:36:41;;;;;;;1.20;0.77;;;9.30;99.90;;;;;;5035591;28;20028;-73
2022/04/15 05:39:07;;;;;;;4.65;0.70;;;9.30;99.90;;;;;;5053875;28;20370;-73
2022/04/15 05:41:33;;;;;;;4.00;0.65;;;9.40;99.90;;;;;;5053546;28;20079;-74
2022/04/15 05:43:58;;;;;;;1.30;0.68;;;9.40;99.90;;;;;;5035752;28;20452;-75
2022/04/15 05:46:27;;;;;;;2.70;0.57;;;9.50;99.90;;;;;;5053515;28;20056;-75
2022/04/15 05:48:52;;;;;;;8.02;1.67;;;9.50;99.90;;;;;;5053612;28;20367;-75
2022/04/15 05:51:19;;;;;;;3.30;0.70;;;9.60;99.90;;;;;;5053495;28;20078;-75
2022/04/15 05:53:44;;;;;;;7.10;0.73;;;9.60;99.90;;;;;;5053517;28;20021;-75
2022/04/15 05:56:10;;;;;;;3.75;0.63;;;9.60;99.90;;;;;;5053796;28;20443;-75
2022/04/15 05:58:36;;;;;;;5.50;1.33;;;9.60;99.90;;;;;;5053378;28;20025;-77
2022/04/15 06:01:01;;;;;;;4.45;0.85;;;9.70;99.90;;;;;;5053495;28;20025;-75
2022/04/15 06:03:32;;;;;;;2.05;0.40;;;9.70;99.90;;;;;;5053547;28;20141;-75
2022/04/15 06:05:58;;;;;;;3.30;0.82;;;9.70;99.90;;;;;;5035654;28;20028;-75
2022/04/15 06:08:23;;;;;;;1.58;0.65;;;9.70;99.90;;;;;;5053259;28;20025;-75
2022/04/15 06:10:49;;;;;;;3.45;0.35;;;9.70;99.90;;;;;;5055203;28;20021;-75
2022/04/15 06:13:19;;;;;;;7.85;0.70;;;9.70;99.90;;;;;;5057094;28;20036;-76
2022/04/15 06:15:53;;;;;;;4.60;1.02;;;9.70;99.90;;;;;;5058268;28;20034;-75
2022/04/15 06:18:23;;;;;;;3.83;0.40;;;9.80;99.90;;;;;;5039184;28;20053;-75
2022/04/15 06:20:51;;;;;;;3.33;0.30;;;9.80;99.90;;;;;;5057508;28;20025;-75
2022/04/15 06:23:18;;;;;;;4.00;0.82;;;9.90;99.90;;;;;;5057265;28;20578;-75
2022/04/15 06:25:45;;;;;;;3.20;0.75;;;9.90;99.90;;;;;;5056983;28;20107;-75
2022/04/15 06:28:11;;;;;;;2.85;0.50;;;10.00;99.90;;;;;;5057031;28;20071;-76
2022/04/15 06:30:37;;;;;;;0.43;0.25;;;10.00;99.90;;;;;;5056572;28;20543;-75
2022/04/15 06:33:08;;;;;;;1.85;0.40;;;10.00;99.90;;;;;;5056986;28;20040;-75
2022/04/15 06:35:34;;;;;;;2.83;0.35;;;10.10;99.90;;;;;;5057009;28;20025;-75
2022/04/15 06:38:00;;;;;;;1.75;0.22;;;10.10;99.90;;;;;;5038706;28;20024;-75
2022/04/15 06:40:25;;;;;;;0.73;0.20;;;10.20;99.90;;;;;;5056525;28;20029;-75
2022/04/15 06:42:51;;;;;;;5.38;0.55;;;10.30;99.90;;;;;;5056754;28;20017;-75
2022/04/15 06:45:16;;;;;;;2.38;0.32;;;10.30;99.90;;;;;;5056881;28;20477;-75
2022/04/15 06:47:42;;;;;;;1.27;0.70;;;10.40;99.90;;;;;;5038403;28;20013;-75
2022/04/15 06:50:09;;;;;;;2.45;0.90;;;10.50;99.90;;;;;;5056508;28;20082;-75
2022/04/15 06:52:34;;;;;;;1.25;0.38;;;10.50;99.90;;;;;;5056474;28;20398;-75
2022/04/15 06:55:00;;;;;;;1.48;0.10;;;10.60;99.90;;;;;;5056571;28;20028;-75
2022/04/15 06:57:25;;;;;;;1.95;0.10;;;10.60;99.90;;;;;;5056214;28;20029;-75
2022/04/15 06:59:51;;;;;;;0.65;0.00;;;10.60;99.90;;;;;;5055989;28;20104;-75
2022/04/15 07:02:17;;;;;;;1.05;0.10;;;10.60;99.90;;;;;;5038061;28;20079;-75
2022/04/15 07:04:42;;;;;;;2.78;0.52;;;10.70;99.90;;;;;;5055906;28;20032;-76
2022/04/15 07:07:08;;;;;;;0.68;0.10;;;10.70;99.90;;;;;;5056336;28;20095;-76
2022/04/15 07:09:34;;;;;;;3.28;1.02;;;10.70;99.90;;;;;;5037923;28;20036;-76
2022/04/15 07:11:59;;;;;;;2.25;0.10;;;10.70;99.90;;;;;;5056164;28;20041;-76
2022/04/15 07:14:25;;;;;;;2.30;0.20;;;10.70;99.90;;;;;;5055982;28;20028;-76
2022/04/15 07:16:50;;;;;;;0.60;0.20;;;10.80;99.90;;;;;;5037773;28;20367;-75
2022/04/15 07:19:16;;;;;;;0.75;0.10;;;10.80;99.90;;;;;;5056422;28;20033;-75
2022/04/15 07:21:43;;;;;;;0.82;0.10;;;10.90;99.90;;;;;;5045704;23;20040;-74
2022/04/15 07:24:08;;;;;;;1.50;0.40;;;11.00;99.90;;;;;;5037721;28;20059;-74
2022/04/15 07:26:34;;;;;;;0.20;0.08;;;11.00;99.90;;;;;;5054528;28;20029;-74
2022/04/15 07:29:00;;;;;;;3.00;0.10;;;11.00;99.90;;;;;;5056542;28;20025;-74
2022/04/15 07:31:26;;;;;;;0.73;0.13;;;11.00;99.90;;;;;;5055859;28;20036;-74
2022/04/15 07:33:52;;;;;;;0.20;0.00;;;10.90;99.90;;;;;;5037627;28;20029;-74
2022/04/15 07:39:09;;;;;;;2.65;0.65;;;11.10;99.90;;;;;;5055503;28;20090;-74
2022/04/15 07:41:37;;;;;;;0.10;0.03;;;11.30;99.90;;;;;;5055719;28;20024;-74
2022/04/15 07:44:12;;;;;;;2.05;0.10;;;11.50;99.90;;;;;;5055573;28;20017;-74
2022/04/15 07:46:39;;;;;;;0.30;0.20;;;11.70;99.90;;;;;;5037478;28;20116;-74
2022/04/15 07:49:05;;;;;;;2.38;0.20;;;11.70;99.90;;;;;;5055319;28;20096;-74
2022/04/15 07:51:31;;;;;;;1.23;0.10;;;11.70;99.90;;;;;;5037176;28;20028;-74
2022/04/15 07:53:57;;;;;;;2.95;0.05;;;11.70;99.90;;;;;;5037205;28;20032;-74
2022/04/15 07:56:23;;;;;;;1.05;0.10;;;11.60;99.90;;;;;;5054930;28;20367;-74
2022/04/15 07:58:50;;;;;;;1.70;0.05;;;11.60;99.90;;;;;;5054983;28;20025;-74
2022/04/15 08:01:16;;;;;;;1.23;0.10;;;11.50;99.90;;;;;;5054780;28;20017;-74
2022/04/15 08:03:42;;;;;;;1.85;0.68;;;11.50;99.90;;;;;;5054601;28;20052;-74
2022/04/15 08:06:07;;;;;;;0.63;0.00;;;11.50;99.90;;;;;;5054782;28;20069;-74
2022/04/15 08:08:33;;;;;;;1.73;0.10;;;11.60;99.90;;;;;;5054570;28;20025;-74
2022/04/15 08:10:59;;;;;;;1.52;0.00;;;11.60;99.90;;;;;;5055155;28;20112;-74
2022/04/15 08:13:24;;;;;;;1.40;0.00;;;11.80;99.90;;;;;;5055053;28;20021;-74
2022/04/15 08:15:53;;;;;;;1.10;0.63;;;11.90;99.90;;;;;;5054553;28;20036;-74
2022/04/15 08:18:20;;;;;;;1.85;0.10;;;12.00;99.90;;;;;;5036601;28;20074;-74
2022/04/15 08:20:46;;;;;;;0.93;0.00;;;12.10;99.90;;;;;;5036446;28;20032;-74
2022/04/15 08:23:12;;;;;;;1.17;0.00;;;12.20;99.90;;;;;;5036550;28;20438;-74
2022/04/15 08:25:37;;;;;;;1.02;0.00;;;12.20;99.90;;;;;;5054405;28;20053;-74
2022/04/15 08:28:05;;;;;;;3.40;0.10;;;12.30;99.90;;;;;;5054408;28;20074;-74
2022/04/15 08:30:33;;;;;;;0.80;0.00;;;12.20;99.90;;;;;;5054202;28;20401;-74
2022/04/15 08:33:02;;;;;;;0.88;0.00;;;12.20;99.90;;;;;;5054403;28;20049;-74
2022/04/15 08:35:28;;;;;;;2.15;0.00;;;12.30;99.90;;;;;;5054376;28;20047;-75
2022/04/15 08:37:54;;;;;;;1.80;0.00;;;12.40;99.90;;;;;;5054442;28;20048;-74
2022/04/15 08:40:20;;;;;;;2.25;0.13;;;12.60;99.90;;;;;;5036266;28;20064;-74
2022/04/15 08:42:49;;;;;;;1.00;0.00;;;12.70;99.90;;;;;;5053989;28;20094;-74
2022/04/15 08:45:15;;;;;;;1.42;0.15;;;12.70;99.90;;;;;;5054245;28;20017;-74
2022/04/15 08:47:41;;;;;;;0.95;0.00;;;12.70;99.90;;;;;;5054514;28;20032;-74
2022/04/15 08:50:10;;;;;;;1.25;0.10;;;12.70;99.90;;;;;;5054305;28;20029;-74
2022/04/15 08:52:36;;;;;;;0.75;0.08;;;12.80;99.90;;;;;;5053778;28;20017;-74
2022/04/15 08:55:01;;;;;;;2.38;0.00;;;13.00;99.90;;;;;;5035970;28;20075;-74
2022/04/15 08:57:27;;;;;;;2.42;0.10;;;13.00;99.90;;;;;;5053770;28;20021;-74
2022/04/15 08:59:53;;;;;;;0.22;0.00;;;13.20;99.90;;;;;;5035803;28;20028;-74
2022/04/15 09:02:30;;;;;;;4.47;0.00;;;13.20;99.90;;;;;;5035783;28;20419;-74
2022/04/15 09:04:57;;;;;;;0.85;0.00;;;13.20;99.90;;;;;;5053963;28;20029;-74
2022/04/15 09:07:26;;;;;;;3.70;0.10;;;13.20;99.90;;;;;;5035811;28;20036;-74
2022/04/15 09:09:56;;;;;;;1.17;0.43;;;13.50;99.90;;;;;;5035726;28;20032;-74
2022/04/15 09:12:28;;;;;;;1.85;0.10;;;13.70;99.90;;;;;;5053479;28;20021;-74
2022/04/15 09:14:59;;;;;;;0.82;0.00;;;13.80;99.90;;;;;;5035856;28;20024;-74
2022/04/15 09:17:27;;;;;;;0.52;0.10;;;13.80;99.90;;;;;;5053431;28;20021;-74
2022/04/15 09:19:53;;;;;;;0.63;0.10;;;13.80;99.90;;;;;;5053365;28;20032;-74
2022/04/15 09:22:19;;;;;;;1.02;0.00;;;13.50;99.90;;;;;;5053265;28;20052;-74
2022/04/15 09:24:47;;;;;;;2.28;0.63;;;13.50;99.90;;;;;;5035554;28;20107;-74
2022/04/15 09:27:15;;;;;;;0.00;0.00;;;13.50;99.90;;;;;;5053514;28;20473;-74
2022/04/15 09:29:41;;;;;;;0.10;0.00;;;13.60;99.90;;;;;;5035491;28;20025;-74
2022/04/15 09:32:14;;;;;;;0.95;0.28;;;14.20;99.90;;;;;;5053540;28;20036;-74
2022/04/15 09:34:52;;;;;;;1.90;0.00;;;13.60;99.90;;;;;;5053397;28;20025;-74
2022/04/15 09:37:18;;;;;;;2.30;0.30;;;13.50;99.90;;;;;;5053569;28;20525;-74
2022/04/15 09:40:18;;;;;;;2.55;0.00;;;13.60;99.90;;;;;;5053129;28;20111;-74
2022/04/15 09:42:48;;;;;;;2.28;0.00;;;13.70;99.90;;;;;;5035342;28;20021;-74
2022/04/15 09:45:18;;;;;;;0.57;0.03;;;13.80;99.90;;;;;;5055331;28;20474;-74
2022/04/15 09:47:54;;;;;;;1.38;0.03;;;13.80;99.90;;;;;;5041949;28;20025;-74
2022/04/15 09:50:34;;;;;;;1.17;0.30;;;13.90;99.90;;;;;;5060088;28;20082;-74
2022/04/15 09:53:13;;;;;;;0.75;0.20;;;14.00;99.90;;;;;;5059732;28;20032;-74
2022/04/15 09:55:40;;;;;;;0.93;0.00;;;14.20;99.90;;;;;;5041858;28;20044;-74
2022/04/15 09:58:14;;;;;;;0.93;0.10;;;14.30;99.90;;;;;;5059797;28;20390;-74
2022/04/15 10:00:41;;;;;;;1.92;0.00;;;14.40;99.90;;;;;;5041815;28;20024;-74
2022/04/15 10:03:12;;;;;;;0.50;0.15;;;14.40;99.90;;;;;;5059869;28;20021;-74
2022/04/15 10:05:38;;;;;;;0.55;0.00;;;14.40;99.90;;;;;;5059906;28;20092;-74
2022/04/15 10:08:05;;;;;;;0.38;0.20;;;14.50;99.90;;;;;;5059634;28;20359;-74
2022/04/15 10:10:34;;;;;;;1.55;0.28;;;14.60;99.90;;;;;;5059520;28;20112;-74
2022/04/15 10:13:01;;;;;;;1.75;0.00;;;14.80;99.90;;;;;;5059906;28;20486;-74
2022/04/15 10:15:29;;;;;;;3.00;0.20;;;14.90;99.90;;;;;;5060103;28;20107;-74
2022/04/15 10:17:56;;;;;;;2.55;0.00;;;15.10;99.90;;;;;;5059581;28;20062;-73
2022/04/15 10:20:22;;;;;;;0.30;0.00;;;15.00;99.90;;;;;;5059465;28;20112;-73
2022/04/15 10:22:49;;;;;;;0.40;0.00;;;14.90;99.90;;;;;;5059239;28;20463;-74
2022/04/15 10:25:14;;;;;;;1.45;0.20;;;14.90;99.90;;;;;;5060099;28;20028;-75
2022/04/15 10:27:40;;;;;;;0.50;0.00;;;15.00;99.90;;;;;;5041519;28;20025;-74
2022/04/15 10:30:19;;;;;;;2.72;0.05;;;15.20;99.90;;;;;;5059999;28;20017;-75
2022/04/15 10:32:54;;;;;;;1.05;0.10;;;15.40;99.90;;;;;;5059301;28;20032;-74
2022/04/15 10:35:34;;;;;;;0.20;0.00;;;15.40;97.70;;;;;;5041546;28;20032;-74
2022/04/15 10:38:10;;;;;;;1.70;0.10;;;15.40;97.30;;;;;;5041455;28;20087;-74
2022/04/15 10:40:36;;;;;;;1.40;0.00;;;15.30;97.20;;;;;;5059294;28;20433;-74
2022/04/15 10:43:31;;;;;;;0.90;0.00;;;15.10;97.30;;;;;;5059696;28;20511;-74
2022/04/15 10:46:15;;;;;;;2.50;0.10;;;15.20;98.70;;;;;;5042398;28;20424;-72
2022/04/15 10:48:41;;;;;;;1.77;0.32;;;15.30;97.10;;;;;;5059283;28;20025;-74
2022/04/15 10:51:25;;;;;;;0.20;0.00;;;15.30;95.90;;;;;;5059178;28;20559;-74
2022/04/15 10:53:54;;;;;;;1.63;0.00;;;15.20;94.40;;;;;;5059230;28;20032;-74
2022/04/15 10:56:22;;;;;;;0.10;0.00;;;15.20;98.00;;;;;;5040535;28;20021;-74
2022/04/15 11:02:02;;;;;;;0.32;0.00;;;15.30;99.90;;;;;;5056810;28;20036;-74
2022/04/15 11:04:35;;;;;;;1.52;0.03;;;15.70;97.70;;;;;;5055900;28;20049;-74
2022/04/15 11:07:14;;;;;;;0.38;0.00;;;15.80;96.30;;;;;;5056079;28;20025;-74
2022/04/15 11:09:40;;;;;;;0.20;0.00;;;15.90;95.50;;;;;;5055693;28;20033;-74
2022/04/15 11:12:06;;;;;;;0.38;0.15;;;15.80;94.10;;;;;;5056092;28;20025;-74
2022/04/15 11:14:34;;;;;;;1.05;0.00;;;15.90;96.40;;;;;;5055687;28;20104;-74
2022/04/15 11:17:00;;;;;;;0.32;0.00;;;16.50;97.90;;;;;;5037846;28;20029;-74
2022/04/15 11:19:27;;;;;;;2.25;0.47;;;17.10;93.70;;;;;;5056199;28;20430;-74
2022/04/15 11:21:54;;;;;;;3.33;0.50;;;17.30;92.60;;;;;;5037834;28;20025;-74
2022/04/15 11:24:28;;;;;;;0.57;0.25;;;17.80;92.00;;;;;;5055619;28;20025;-74
2022/04/15 11:27:01;;;;;;;1.00;0.32;;;18.10;87.80;;;;;;5055514;28;20489;-74
2022/04/15 11:29:37;;;;;;;3.25;0.17;;;17.90;87.10;;;;;;5037403;28;20032;-74
2022/04/15 11:32:07;;;;;;;1.75;0.30;;;17.80;83.40;;;;;;5055759;28;20107;-74
2022/04/15 11:34:34;;;;;;;0.30;0.10;;;17.50;84.70;;;;;;5055803;28;20029;-74
2022/04/15 11:37:05;;;;;;;1.33;0.15;;;17.20;87.60;;;;;;5037756;28;20033;-74
2022/04/15 11:39:35;;;;;;;1.35;0.30;;;16.90;91.00;;;;;;5037191;28;20063;-74
2022/04/15 11:42:05;;;;;;;3.20;0.17;;;16.60;90.30;;;;;;5055581;28;20078;-74
2022/04/15 11:44:32;;;;;;;2.22;0.35;;;16.30;90.90;;;;;;5055730;28;20024;-74
2022/04/15 11:47:16;;;;;;;1.75;0.40;;;16.00;91.00;;;;;;5055410;28;20028;-74
2022/04/15 11:49:43;;;;;;;0.88;0.20;;;15.70;94.00;;;;;;5037365;28;20048;-74
2022/04/15 11:52:09;;;;;;;0.57;0.52;;;15.70;96.40;;;;;;5054927;28;20486;-74
2022/04/15 11:54:38;;;;;;;2.10;0.57;;;15.70;95.50;;;;;;5054948;28;20029;-74
2022/04/15 11:57:04;;;;;;;2.28;0.30;;;15.50;96.50;;;;;;5036960;28;20024;-74
2022/04/15 11:59:41;;;;;;;4.72;0.40;;;15.40;97.40;;;;;;5036979;28;20021;-74
2022/04/15 12:02:07;;;;;;;0.40;0.35;;;15.30;99.10;;;;;;5054997;28;20017;-74
2022/04/15 12:04:34;;;;;;;2.28;0.98;;;15.30;98.70;;;;;;5037000;28;20078;-74
2022/04/15 12:06:59;;;;;;;2.65;0.40;;;15.20;97.40;;;;;;5055029;28;20017;-74
2022/04/15 12:09:26;;;;;;;1.80;0.45;;;15.20;98.70;;;;;;5036682;28;20482;-74
2022/04/15 12:11:55;;;;;;;3.58;0.60;;;15.10;98.40;;;;;;5036719;28;20025;-74
2022/04/15 12:14:20;;;;;;;;;;;15.10;98.20;;;;;;5055023;28;20032;-74
2022/04/15 12:16:47;;;;;;;2.20;0.50;;;15.10;99.40;;;;;;5054473;28;20273;-74
2022/04/15 12:19:14;;;;;;;1.73;0.50;;;15.20;98.90;;;;;;5054505;28;20017;-74
2022/04/15 12:21:42;;;;;;;7.30;1.40;;;15.20;97.70;;;;;;5054324;28;20025;-74
2022/04/15 12:24:22;;;;;;;1.42;0.85;;;15.10;99.20;;;;;;5054380;28;20009;-74
2022/04/15 12:26:54;;;;;;;2.47;0.40;;;15.10;99.60;;;;;;5054752;28;20451;-74
2022/04/15 12:32:25;;;;;;;1.58;0.50;;;15.00;99.90;;;;;;5054587;28;20533;-74
2022/04/15 12:34:54;;;;;;;2.22;0.60;;;15.00;99.70;;;;;;5054157;28;20033;-74
2022/04/15 12:37:36;;;;;;;1.20;0.75;;;15.00;98.80;;;;;;5054173;28;20039;-74
2022/04/15 12:40:12;;;;;;;2.58;0.50;;;14.80;99.20;;;;;;5036165;28;20193;-74
2022/04/15 12:42:40;;;;;;;2.80;0.80;;;14.60;99.90;;;;;;5054037;28;20021;-74
2022/04/15 12:45:09;;;;;;;3.08;0.73;;;14.60;99.90;;;;;;5036115;28;20021;-74
2022/04/15 12:47:35;;;;;;;1.45;0.25;;;14.60;99.90;;;;;;5036025;28;20028;-74
2022/04/15 12:50:16;;;;;;;3.35;0.40;;;14.80;99.90;;;;;;5053938;28;20025;-74
2022/04/15 12:52:42;;;;;;;2.67;1.00;;;15.00;99.90;;;;;;5053761;28;20025;-74
2022/04/15 12:55:07;;;;;;;3.05;0.98;;;15.20;99.90;;;;;;5035881;28;20025;-74
2022/04/15 12:57:36;;;;;;;1.92;0.68;;;15.40;99.90;;;;;;5054341;28;20432;-74
2022/04/15 13:00:05;;;;;;;2.83;0.65;;;15.50;99.90;;;;;;5053767;28;20025;-74
2022/04/15 13:02:31;;;;;;;;;;;15.70;98.80;;;;;;5054024;28;20025;-74
2022/04/15 13:04:57;;;;;;;0.43;0.15;;;15.80;97.20;;;;;;5035717;28;19905;-74